Ida, Michigan
Current Conditions -  °F | °C
As of 2:35 PM on Tuesday 21 Oct 2014 (Local Time) from KTTF Reporting Station
Overcast Overcast  
Wind Chill: 44°   Ceiling: 2700
Heat Index: 48°   Visibility: 10mi
Dew Point: 39°   Wind: 9mph
Humidity: 71%   Direction: 340°NNW
Pressure: 30.05"   Gusts: 16mph
Location:  41.91°N, 83.57°W
Report Text: KTTF 211835Z AUTO 34008G14KT 10SM BKN027 OVC034 09/04 A3005 RMK AO2
Loading
Personal Weather Stations






























Interactive Weather Map
Tropical Storm Tracking
New forecast layout! Learn more

10-Day Weather Forecast

Advertisements
Track Severe Weather on mobile